Main page
METAR-TAF:

METAR-TAF

Airports :

Talagi Airport

Arkhangelsk, Russia

latitude: 64-30N, longitude: 040-44E, elevation: 13 m

Current weather observation

The report was made 19 minutes ago, at 22:00 UTC
Calm wind
Temperature 7°C
Humidity 100%
Pressure 1024 hPa
Visibility 10 km or more
Few clouds at a height of 3000 ft
Shallow fog

METAR: ULAA 092200Z 00000MPS 9999 MIFG FEW030 07/07 Q1024 R08/CLRD70 NOSIG RMK QFE767/1023

Time: 01:19 (22:19 UTC)

Forecast

The report was made 2 hours and 19 minutes ago, at 20:00 UTC
Forecast valid from 09 at 21 UTC to 10 at 21 UTC
Wind 6 kt from the Northwest
Visibility 10 km or more
Scattered clouds at a height of 2500 ft
Temporary
from 09 at 21 UTC to 10 at 03 UTC
Wind 6 kt from the West
Visibility: 0300 m
Few clouds at a height of 200 ft
fog

TAF: ULAA 092000Z 0921/1021 31003MPS 9999 SCT025 TEMPO 0921/1003 27003MPS 0300 FG FEW002

Weather observations and forecasts of more than 4000 airports (METAR and TAF reports).

The available stations are represented by yellow and red dots on the map.

Hover mouse over dot to see the name of the station.

Then click to see weather observations and forecasts.

To change the map : click on the green buttons with a black cross to zoom in, on the green button with a dash to zoom out, or on the green arrows for adjacent maps.


METAR-TAF: